createdAt,value
2023-05-16T00:01:24.998Z,73.99
2023-05-16T00:03:53.017Z,73.91
2023-05-16T00:06:21.196Z,73.80
2023-05-16T00:08:49.215Z,74.04
2023-05-16T00:11:18.131Z,74.23
2023-05-16T00:13:47.851Z,74.07
2023-05-16T00:16:15.899Z,73.51
2023-05-16T00:18:45.613Z,73.83
2023-05-16T00:21:13.888Z,73.79
2023-05-16T00:23:41.833Z,73.44
2023-05-16T00:26:09.951Z,74.09
2023-05-16T00:28:42.021Z,74.01
2023-05-16T00:31:11.395Z,74.39
2023-05-16T00:33:39.304Z,75.47
2023-05-16T00:36:07.773Z,75.23
2023-05-16T00:38:35.842Z,74.71
2023-05-16T00:41:04.372Z,75.11
2023-05-16T00:43:32.294Z,74.89
2023-05-16T00:46:00.737Z,75.13
2023-05-16T00:48:31.279Z,74.92
2023-05-16T00:51:02.611Z,74.55
2023-05-16T00:53:30.768Z,74.47
2023-05-16T00:55:59.214Z,75.78
2023-05-16T00:58:27.574Z,76.30
2023-05-16T01:00:55.596Z,75.90
2023-05-16T01:03:23.686Z,76.13
2023-05-16T01:05:53.817Z,77.03
2023-05-16T01:08:21.740Z,76.73
2023-05-16T01:11:01.660Z,76.83
2023-05-16T01:13:38.121Z,76.18
2023-05-16T01:16:12.149Z,75.76
2023-05-16T01:18:49.142Z,75.66
2023-05-16T01:21:29.058Z,75.37
2023-05-16T01:24:05.343Z,75.28
2023-05-16T01:26:37.930Z,75.26
2023-05-16T01:29:08.673Z,75.35
2023-05-16T01:31:36.648Z,75.98
2023-05-16T01:34:04.681Z,76.11
2023-05-16T01:36:40.414Z,76.05
2023-05-16T01:39:14.834Z,76.20
2023-05-16T01:41:53.932Z,76.21
2023-05-16T01:44:26.335Z,76.39
2023-05-16T01:46:59.303Z,76.44
2023-05-16T01:49:32.595Z,76.47
2023-05-16T01:52:05.964Z,75.79
2023-05-16T01:54:38.615Z,75.88
2023-05-16T01:57:10.080Z,75.82
2023-05-16T01:59:39.832Z,76.15
2023-05-16T02:02:07.861Z,76.39
2023-05-16T02:04:35.972Z,76.19
2023-05-16T02:07:04.419Z,76.47
2023-05-16T02:09:32.468Z,76.91
2023-05-16T02:12:00.922Z,77.08
2023-05-16T02:14:31.665Z,78.68
2023-05-16T02:16:59.874Z,79.63
2023-05-16T02:19:27.987Z,79.72
2023-05-16T02:21:56.650Z,79.43
2023-05-16T02:24:24.598Z,79.03
2023-05-16T02:26:52.499Z,78.76
2023-05-16T02:29:20.493Z,78.95
2023-05-16T02:31:49.806Z,78.27
2023-05-16T02:34:17.769Z,77.94
2023-05-16T02:36:46.006Z,78.04
2023-05-16T02:39:13.904Z,77.66
2023-05-16T02:41:41.849Z,77.06
2023-05-16T02:44:09.919Z,76.90
2023-05-16T02:46:38.015Z,77.57
2023-05-16T02:49:07.409Z,77.25
2023-05-16T02:51:35.381Z,77.18
2023-05-16T02:54:03.349Z,77.36
2023-05-16T02:56:31.481Z,77.87
2023-05-16T02:58:59.395Z,77.84
2023-05-16T03:01:27.366Z,77.49
2023-05-16T03:03:55.505Z,76.99
2023-05-16T03:06:25.519Z,77.10
2023-05-16T03:08:53.457Z,77.60
2023-05-16T03:11:22.367Z,76.97
2023-05-16T03:13:50.290Z,77.39
2023-05-16T03:16:18.340Z,77.39
2023-05-16T03:18:46.382Z,78.10
2023-05-16T03:21:14.503Z,78.85
2023-05-16T03:23:44.269Z,78.75
2023-05-16T03:26:12.226Z,79.15
2023-05-16T03:28:40.201Z,79.12
2023-05-16T03:31:08.214Z,78.90
2023-05-16T03:33:36.465Z,78.69
2023-05-16T03:36:04.701Z,78.77
2023-05-16T03:38:32.716Z,79.13
2023-05-16T03:41:02.585Z,79.14
2023-05-16T03:43:30.689Z,79.47
2023-05-16T03:45:58.725Z,79.46
2023-05-16T03:48:26.809Z,79.20
2023-05-16T03:50:54.805Z,78.72
2023-05-16T03:53:22.775Z,79.03
2023-05-16T03:55:50.693Z,78.83
2023-05-16T03:58:19.972Z,78.86
2023-05-16T04:00:48.027Z,78.32
2023-05-16T04:03:16.380Z,78.48
2023-05-16T04:05:45.146Z,78.60
2023-05-16T04:08:13.265Z,78.89
2023-05-16T04:10:41.321Z,78.78
2023-05-16T04:13:09.966Z,78.79
2023-05-16T04:15:39.328Z,78.91
2023-05-16T04:18:07.322Z,78.84
2023-05-16T04:20:35.371Z,79.09
2023-05-16T04:23:03.339Z,79.82
2023-05-16T04:25:31.510Z,79.80
2023-05-16T04:27:59.476Z,80.14
2023-05-16T04:30:27.513Z,80.79
2023-05-16T04:32:57.407Z,82.05
2023-05-16T04:35:25.778Z,82.25
2023-05-16T04:37:54.016Z,82.21
2023-05-16T04:40:21.995Z,82.48
2023-05-16T04:42:50.182Z,82.20
2023-05-16T04:45:18.253Z,81.26
2023-05-16T04:47:46.291Z,81.04
2023-05-16T04:50:16.236Z,80.87
2023-05-16T04:52:44.156Z,80.95
2023-05-16T04:55:12.624Z,81.45
2023-05-16T04:57:40.631Z,81.06
2023-05-16T05:00:10.514Z,81.42
2023-05-16T05:02:39.180Z,80.82
2023-05-16T05:05:08.510Z,80.51
2023-05-16T05:07:38.356Z,80.92
2023-05-16T05:10:07.586Z,81.04
2023-05-16T05:12:36.078Z,82.58
2023-05-16T05:15:04.414Z,82.67
2023-05-16T05:17:32.366Z,82.24
2023-05-16T05:20:02.697Z,83.69
2023-05-16T05:22:31.233Z,84.11
2023-05-16T05:25:00.735Z,84.08
2023-05-16T05:27:28.761Z,83.04
2023-05-16T05:29:56.701Z,82.07
2023-05-16T05:32:24.680Z,81.08
2023-05-16T05:34:53.035Z,80.30
2023-05-16T05:37:21.213Z,80.04
2023-05-16T05:39:49.159Z,79.47
2023-05-16T05:42:18.581Z,79.31
2023-05-16T05:44:46.559Z,79.28
2023-05-16T05:47:14.705Z,79.28
2023-05-16T05:49:42.878Z,80.86
2023-05-16T05:52:10.875Z,79.66
2023-05-16T05:54:38.837Z,78.99
2023-05-16T05:57:07.085Z,79.57
2023-05-16T05:59:37.405Z,79.37
2023-05-16T06:02:05.901Z,79.84
2023-05-16T06:04:33.869Z,80.12
2023-05-16T06:07:01.827Z,79.78
2023-05-16T06:09:29.727Z,79.82
2023-05-16T06:11:57.668Z,79.13
2023-05-16T06:14:25.612Z,78.12
2023-05-16T06:16:54.963Z,77.80
2023-05-16T06:19:22.978Z,76.77
2023-05-16T06:21:50.876Z,75.42
2023-05-16T06:24:18.796Z,75.22
2023-05-16T06:26:50.191Z,74.66
2023-05-16T06:29:18.261Z,74.87
2023-05-16T06:31:48.022Z,74.68
2023-05-16T06:34:17.365Z,74.70
2023-05-16T06:36:45.383Z,79.12
2023-05-16T06:39:13.366Z,78.01
2023-05-16T06:41:41.404Z,74.27
2023-05-16T06:44:16.034Z,75.42
2023-05-16T06:46:44.070Z,75.01
2023-05-16T06:49:12.180Z,74.47
2023-05-16T06:51:41.645Z,75.14
2023-05-16T06:54:09.610Z,74.49
2023-05-16T06:56:37.740Z,74.81
2023-05-16T06:59:05.736Z,76.20
2023-05-16T07:01:33.834Z,77.25
2023-05-16T07:04:02.062Z,78.33
2023-05-16T07:06:30.107Z,77.61
2023-05-16T07:08:59.527Z,78.87
2023-05-16T07:11:27.488Z,79.26
2023-05-16T07:13:55.426Z,80.32
2023-05-16T07:16:24.258Z,81.35
2023-05-16T07:18:52.552Z,81.09
2023-05-16T07:21:20.646Z,81.05
2023-05-16T07:23:48.597Z,81.41
2023-05-16T07:26:18.113Z,81.52
2023-05-16T07:28:46.148Z,81.61
2023-05-16T07:31:14.370Z,81.59
2023-05-16T07:33:42.387Z,81.16
2023-05-16T07:36:16.631Z,82.16
2023-05-16T07:38:46.157Z,81.92
2023-05-16T07:41:14.036Z,81.45
2023-05-16T07:43:43.368Z,82.03
2023-05-16T07:46:11.458Z,81.34
2023-05-16T07:48:39.511Z,81.69
2023-05-16T07:51:07.631Z,82.07
2023-05-16T07:53:35.769Z,83.28
2023-05-16T07:56:03.853Z,82.73
2023-05-16T07:58:31.961Z,83.85
2023-05-16T08:01:01.333Z,81.81
2023-05-16T08:03:29.432Z,82.15
2023-05-16T08:05:57.557Z,81.44
2023-05-16T08:08:25.564Z,80.06
2023-05-16T08:10:53.498Z,80.36
2023-05-16T08:13:21.546Z,80.72
2023-05-16T08:15:49.505Z,80.35
2023-05-16T08:18:20.692Z,79.17
2023-05-16T08:20:50.238Z,78.82
2023-05-16T08:23:18.204Z,78.80
2023-05-16T08:25:46.199Z,78.91
2023-05-16T08:28:14.111Z,78.81
2023-05-16T08:30:43.765Z,80.16
2023-05-16T08:33:12.701Z,80.72
2023-05-16T08:35:45.411Z,80.75
2023-05-16T08:38:16.082Z,81.58
2023-05-16T08:40:44.440Z,82.91
2023-05-16T08:43:12.907Z,83.23
2023-05-16T08:45:42.169Z,82.93
2023-05-16T08:48:12.084Z,82.49
2023-05-16T08:50:42.730Z,83.74
2023-05-16T08:53:13.529Z,84.53
2023-05-16T08:55:43.875Z,83.89
2023-05-16T08:58:12.741Z,84.04
2023-05-16T09:00:41.393Z,84.09
2023-05-16T09:03:09.530Z,84.33
2023-05-16T09:05:37.762Z,84.66
2023-05-16T09:08:06.604Z,84.59
2023-05-16T09:10:36.048Z,84.17
2023-05-16T09:13:04.535Z,83.70
2023-05-16T09:15:33.472Z,84.38
2023-05-16T09:18:02.642Z,85.28
2023-05-16T09:20:31.314Z,85.65
2023-05-16T09:23:01.186Z,86.53
2023-05-16T09:25:32.501Z,85.89
2023-05-16T09:28:03.639Z,85.72
2023-05-16T09:30:33.850Z,85.17
2023-05-16T09:33:02.367Z,86.32
2023-05-16T09:35:44.237Z,86.17
2023-05-16T09:38:17.275Z,84.88
2023-05-16T09:40:46.333Z,83.55
2023-05-16T09:43:18.028Z,84.07
2023-05-16T09:45:50.229Z,83.85
2023-05-16T09:48:18.865Z,84.34
2023-05-16T09:50:53.548Z,80.95
2023-05-16T09:53:28.608Z,82.47
2023-05-16T09:56:03.593Z,83.43
2023-05-16T09:58:34.925Z,82.40
2023-05-16T10:01:03.521Z,82.80
2023-05-16T10:03:31.935Z,81.08
2023-05-16T10:06:01.789Z,81.28
2023-05-16T10:08:36.272Z,80.63
2023-05-16T10:11:06.559Z,81.40
2023-05-16T10:13:37.819Z,80.73
2023-05-16T10:16:09.476Z,81.02
2023-05-16T10:18:39.454Z,81.21
2023-05-16T10:21:11.600Z,80.27
2023-05-16T10:23:43.688Z,81.33
2023-05-16T10:26:14.555Z,81.15
2023-05-16T10:28:44.846Z,80.99
2023-05-16T10:31:12.852Z,81.19
2023-05-16T10:33:41.345Z,81.59
2023-05-16T10:36:11.074Z,80.04
2023-05-16T10:38:40.375Z,80.27
2023-05-16T10:41:09.572Z,80.17
2023-05-16T10:43:37.706Z,79.47
2023-05-16T10:46:10.307Z,79.04
2023-05-16T10:48:39.718Z,78.70
2023-05-16T10:51:37.705Z,78.73
2023-05-16T10:54:11.343Z,79.35
2023-05-16T10:56:39.843Z,78.27
2023-05-16T10:59:24.094Z,78.69
2023-05-16T11:01:56.573Z,77.91
2023-05-16T11:04:24.744Z,77.88
2023-05-16T11:06:54.826Z,77.50
2023-05-16T11:09:26.627Z,77.55
2023-05-16T11:12:03.543Z,77.06
2023-05-16T11:14:38.412Z,76.45
2023-05-16T11:17:11.984Z,76.75
2023-05-16T11:19:45.213Z,76.78
2023-05-16T11:22:25.210Z,76.81
2023-05-16T11:24:55.843Z,77.21
2023-05-16T11:27:27.896Z,76.32
2023-05-16T11:30:02.003Z,75.76
2023-05-16T11:32:35.247Z,75.84
2023-05-16T11:35:04.633Z,75.57
2023-05-16T11:37:32.664Z,76.10
2023-05-16T11:40:02.108Z,75.92
2023-05-16T11:42:33.520Z,75.06
2023-05-16T11:45:08.822Z,74.90
2023-05-16T11:47:39.936Z,76.16
2023-05-16T11:50:10.104Z,74.89
2023-05-16T11:52:38.640Z,75.17
2023-05-16T11:55:08.137Z,75.44
2023-05-16T11:57:36.309Z,75.77
2023-05-16T12:00:08.092Z,75.04
2023-05-16T12:02:36.259Z,74.44
2023-05-16T12:05:10.617Z,74.68
2023-05-16T12:07:38.749Z,75.11
2023-05-16T12:10:08.933Z,73.23
2023-05-16T12:12:37.619Z,73.06
2023-05-16T12:15:07.282Z,73.41
2023-05-16T12:17:35.756Z,72.31
2023-05-16T12:20:06.761Z,70.92
2023-05-16T12:22:36.109Z,70.53
2023-05-16T12:25:28.853Z,67.78
2023-05-16T12:27:59.546Z,69.91
2023-05-16T12:30:29.686Z,69.98
2023-05-16T12:32:58.551Z,68.91
2023-05-16T12:35:26.969Z,69.01
2023-05-16T12:37:56.375Z,68.55
2023-05-16T12:40:24.359Z,68.67
2023-05-16T12:42:52.751Z,68.51
2023-05-16T12:45:21.152Z,67.77
2023-05-16T12:47:49.153Z,67.51
2023-05-16T12:50:20.102Z,66.86
2023-05-16T12:52:50.555Z,67.59
2023-05-16T12:55:20.829Z,66.55
2023-05-16T12:57:50.431Z,66.34
2023-05-16T13:00:20.811Z,67.03
2023-05-16T13:02:49.814Z,66.77
2023-05-16T13:05:18.637Z,66.46
2023-05-16T13:07:48.655Z,67.04
2023-05-16T13:10:16.662Z,66.45
2023-05-16T13:12:47.304Z,66.52
2023-05-16T13:15:15.611Z,65.11
2023-05-16T13:17:45.207Z,64.55
2023-05-16T13:20:15.152Z,64.82
2023-05-16T13:22:44.851Z,64.04
2023-05-16T13:25:13.443Z,63.85
2023-05-16T13:27:42.234Z,64.08
2023-05-16T13:30:12.300Z,63.05
2023-05-16T13:32:40.310Z,63.23
2023-05-16T13:35:09.755Z,62.98
2023-05-16T13:37:39.417Z,63.54
2023-05-16T13:40:10.458Z,63.00
2023-05-16T13:42:39.241Z,61.66
2023-05-16T13:45:08.117Z,60.98
2023-05-16T13:47:37.947Z,61.47
2023-05-16T13:50:10.031Z,60.24
2023-05-16T13:52:38.932Z,60.88
2023-05-16T13:55:08.241Z,61.27
2023-05-16T13:57:36.907Z,61.17
2023-05-16T14:00:35.208Z,59.96
2023-05-16T14:03:01.847Z,59.00
2023-05-16T14:05:30.126Z,59.58
2023-05-16T14:07:58.077Z,60.43
2023-05-16T14:10:26.636Z,59.48
2023-05-16T14:12:54.890Z,59.42
2023-05-16T14:15:22.847Z,58.74
2023-05-16T14:17:51.081Z,58.39
2023-05-16T14:20:20.505Z,58.41
2023-05-16T14:22:48.482Z,57.90
2023-05-16T14:25:16.626Z,57.70
2023-05-16T14:27:44.529Z,57.21
2023-05-16T14:30:13.489Z,58.11
2023-05-16T14:32:41.582Z,58.27
2023-05-16T14:35:10.663Z,59.32
2023-05-16T14:37:40.161Z,59.18
2023-05-16T14:40:10.354Z,58.79
2023-05-16T14:42:38.339Z,58.51
2023-05-16T14:45:07.140Z,59.09
2023-05-16T14:47:35.190Z,59.42
2023-05-16T14:50:03.312Z,59.55
2023-05-16T14:52:31.269Z,58.54
2023-05-16T14:55:01.139Z,58.07
2023-05-16T14:57:29.483Z,58.59
2023-05-16T14:59:57.877Z,58.08
2023-05-16T15:02:26.906Z,57.12
2023-05-16T15:04:55.080Z,58.12
2023-05-16T15:07:23.160Z,57.94
2023-05-16T15:09:51.199Z,58.95
2023-05-16T15:12:20.549Z,59.20
2023-05-16T15:14:48.487Z,59.49
2023-05-16T15:17:16.649Z,59.42
2023-05-16T15:19:44.689Z,60.40
2023-05-16T15:22:12.646Z,60.75
2023-05-16T15:24:40.603Z,59.89
2023-05-16T15:27:08.588Z,59.24
2023-05-16T15:29:37.914Z,60.06
2023-05-16T15:32:07.286Z,60.53
2023-05-16T15:34:36.361Z,60.63
2023-05-16T15:37:04.349Z,61.27
2023-05-16T15:39:32.304Z,60.91
2023-05-16T15:42:09.210Z,60.95
2023-05-16T15:44:39.959Z,60.47
2023-05-16T15:47:08.511Z,60.74
2023-05-16T15:49:36.458Z,61.25
2023-05-16T15:52:05.126Z,61.83
2023-05-16T15:54:33.160Z,61.26
2023-05-16T15:57:01.104Z,60.11
2023-05-16T15:59:29.087Z,60.26
2023-05-16T16:01:58.499Z,59.32
2023-05-16T16:04:26.581Z,59.57
2023-05-16T16:06:54.490Z,59.29
2023-05-16T16:09:22.483Z,60.18
2023-05-16T16:11:52.342Z,60.57
2023-05-16T16:14:20.303Z,61.05
2023-05-16T16:16:48.339Z,61.44
2023-05-16T16:19:17.952Z,61.10
2023-05-16T16:21:46.474Z,61.63
2023-05-16T16:24:15.232Z,61.55
2023-05-16T16:26:43.558Z,61.61
2023-05-16T16:29:11.512Z,61.78
2023-05-16T16:31:39.626Z,62.21
2023-05-16T16:34:08.247Z,62.80
2023-05-16T16:36:37.613Z,62.71
2023-05-16T16:39:06.489Z,62.85
2023-05-16T16:41:34.404Z,63.51
2023-05-16T16:44:02.366Z,64.01
2023-05-16T16:46:30.475Z,63.75
2023-05-16T16:48:58.470Z,64.60
2023-05-16T16:51:26.452Z,63.94
2023-05-16T16:53:56.580Z,64.98
2023-05-16T16:56:26.464Z,65.67
2023-05-16T16:58:54.466Z,66.28
2023-05-16T17:01:22.890Z,65.93
2023-05-16T17:03:50.940Z,66.15
2023-05-16T17:06:19.458Z,66.40
2023-05-16T17:08:47.425Z,66.20
2023-05-16T17:11:22.725Z,66.65
2023-05-16T17:13:51.314Z,66.48
2023-05-16T17:16:19.315Z,67.46
2023-05-16T17:18:47.301Z,66.33
2023-05-16T17:21:15.271Z,66.72
2023-05-16T17:23:44.355Z,67.14
2023-05-16T17:26:13.524Z,67.55
2023-05-16T17:28:42.942Z,67.54
2023-05-16T17:31:11.020Z,66.83
2023-05-16T17:33:39.329Z,66.92
2023-05-16T17:36:08.201Z,67.21
2023-05-16T17:38:36.507Z,67.63
2023-05-16T17:41:04.736Z,68.14
2023-05-16T17:43:32.710Z,67.66
2023-05-16T17:46:02.349Z,66.29
2023-05-16T17:48:30.496Z,66.72
2023-05-16T17:50:58.708Z,67.45
2023-05-16T17:53:26.782Z,67.09
2023-05-16T17:55:54.701Z,67.23
2023-05-16T17:58:22.711Z,67.48
2023-05-16T18:00:50.825Z,68.44
2023-05-16T18:03:20.236Z,68.73
2023-05-16T18:05:49.493Z,68.42
2023-05-16T18:08:17.692Z,68.40
2023-05-16T18:10:52.322Z,68.11
2023-05-16T18:13:21.956Z,68.13
2023-05-16T18:15:50.378Z,67.93
2023-05-16T18:18:18.663Z,68.30
2023-05-16T18:20:48.437Z,68.49
2023-05-16T18:23:16.372Z,68.53
2023-05-16T18:25:44.374Z,68.70
2023-05-16T18:28:12.413Z,68.40
2023-05-16T18:30:41.032Z,68.34
2023-05-16T18:33:09.159Z,68.29
2023-05-16T18:35:37.204Z,67.89
2023-05-16T18:38:09.033Z,67.98
2023-05-16T18:40:38.689Z,69.27
2023-05-16T18:43:06.851Z,69.44
2023-05-16T18:45:34.791Z,69.31
2023-05-16T18:48:02.949Z,68.93
2023-05-16T18:50:31.080Z,68.46
2023-05-16T18:52:58.999Z,68.52
2023-05-16T18:55:28.850Z,68.64
2023-05-16T18:57:57.917Z,68.88
2023-05-16T19:00:26.198Z,69.04
2023-05-16T19:02:54.196Z,69.39
2023-05-16T19:05:22.351Z,69.36
2023-05-16T19:07:50.501Z,68.70
2023-05-16T19:10:18.456Z,68.41
2023-05-16T19:12:49.139Z,68.15
2023-05-16T19:15:17.537Z,69.13
2023-05-16T19:17:45.668Z,68.69
2023-05-16T19:20:13.806Z,69.68
2023-05-16T19:22:42.916Z,69.95
2023-05-16T19:25:11.338Z,70.11
2023-05-16T19:27:39.390Z,69.22
2023-05-16T19:30:11.851Z,69.14
2023-05-16T19:32:39.844Z,69.62
2023-05-16T19:35:08.436Z,69.16
2023-05-16T19:37:36.484Z,69.29
2023-05-16T19:40:04.789Z,70.32
2023-05-16T19:42:32.769Z,70.71
2023-05-16T19:45:00.743Z,71.01
2023-05-16T19:47:30.251Z,71.24
2023-05-16T19:49:58.233Z,71.11
2023-05-16T19:52:26.321Z,70.44
2023-05-16T19:54:54.229Z,70.97
2023-05-16T19:57:22.274Z,70.89
2023-05-16T19:59:50.363Z,70.72
2023-05-16T20:02:20.183Z,70.57
2023-05-16T20:04:51.845Z,70.88
2023-05-16T20:07:19.888Z,70.80
2023-05-16T20:09:48.039Z,71.16
2023-05-16T20:12:16.223Z,71.45
2023-05-16T20:14:44.272Z,71.24
2023-05-16T20:17:12.172Z,70.82
2023-05-16T20:19:43.886Z,71.20
2023-05-16T20:22:13.655Z,70.58
2023-05-16T20:24:41.698Z,70.38
2023-05-16T20:27:10.046Z,70.55
2023-05-16T20:29:38.017Z,70.22
2023-05-16T20:32:06.644Z,70.29
2023-05-16T20:34:34.614Z,70.27
2023-05-16T20:37:02.539Z,70.75
2023-05-16T20:39:32.445Z,70.49
2023-05-16T20:42:00.583Z,70.42
2023-05-16T20:44:29.677Z,70.36
2023-05-16T20:46:58.218Z,70.46
2023-05-16T20:49:26.348Z,70.47
2023-05-16T20:51:54.359Z,70.19
2023-05-16T20:54:22.337Z,69.75
2023-05-16T20:56:51.677Z,70.55
2023-05-16T20:59:19.611Z,70.40
2023-05-16T21:01:47.610Z,70.98
2023-05-16T21:04:15.913Z,70.86
2023-05-16T21:06:44.062Z,70.73
2023-05-16T21:09:12.268Z,71.05
2023-05-16T21:11:40.300Z,70.93
2023-05-16T21:14:09.812Z,70.76
2023-05-16T21:16:37.774Z,70.55
2023-05-16T21:19:05.931Z,70.53
2023-05-16T21:21:34.033Z,69.90
2023-05-16T21:24:01.997Z,69.45
2023-05-16T21:26:29.933Z,69.21
2023-05-16T21:28:57.880Z,69.09
2023-05-16T21:31:27.353Z,68.81
2023-05-16T21:33:55.480Z,69.19
2023-05-16T21:36:23.540Z,69.06
2023-05-16T21:38:51.585Z,68.87
2023-05-16T21:41:21.706Z,69.01
2023-05-16T21:43:49.758Z,68.88
2023-05-16T21:46:17.810Z,69.07
2023-05-16T21:48:47.323Z,68.95
2023-05-16T21:51:15.310Z,68.99
2023-05-16T21:53:43.341Z,69.38
2023-05-16T21:56:11.394Z,69.09
2023-05-16T21:58:39.578Z,68.44
2023-05-16T22:01:07.590Z,68.26
2023-05-16T22:03:35.706Z,68.10
2023-05-16T22:06:05.341Z,67.52
2023-05-16T22:08:33.288Z,67.21
2023-05-16T22:11:01.183Z,67.13
2023-05-16T22:13:29.097Z,67.60
2023-05-16T22:16:04.480Z,67.43
2023-05-16T22:18:33.296Z,67.24
2023-05-16T22:21:01.773Z,67.57
2023-05-16T22:23:31.295Z,68.30
2023-05-16T22:25:59.258Z,67.43
2023-05-16T22:28:27.332Z,66.79
2023-05-16T22:30:55.538Z,66.20
2023-05-16T22:33:24.181Z,66.20
2023-05-16T22:35:52.233Z,66.73
2023-05-16T22:38:20.233Z,66.88
2023-05-16T22:40:49.551Z,66.40
2023-05-16T22:43:17.555Z,66.49
2023-05-16T22:45:45.571Z,67.10
2023-05-16T22:48:13.602Z,66.71
2023-05-16T22:50:41.709Z,66.86
2023-05-16T22:53:09.681Z,66.77
2023-05-16T22:55:37.710Z,66.44
2023-05-16T22:58:07.000Z,66.56
2023-05-16T23:00:34.914Z,66.30
2023-05-16T23:03:02.933Z,66.37
2023-05-16T23:05:31.117Z,66.59
2023-05-16T23:07:59.168Z,66.12
2023-05-16T23:10:27.233Z,66.29
2023-05-16T23:12:55.184Z,66.42
2023-05-16T23:15:24.915Z,66.29
2023-05-16T23:17:52.927Z,67.40
2023-05-16T23:20:20.998Z,66.78
2023-05-16T23:22:49.009Z,67.69
2023-05-16T23:25:16.996Z,67.70
2023-05-16T23:27:44.913Z,67.68
2023-05-16T23:30:13.528Z,68.06
2023-05-16T23:32:42.918Z,68.28
2023-05-16T23:35:10.978Z,68.10
2023-05-16T23:37:38.953Z,68.44
2023-05-16T23:40:08.350Z,67.76
2023-05-16T23:42:36.795Z,67.57
2023-05-16T23:45:05.331Z,67.98
2023-05-16T23:47:33.292Z,67.73
2023-05-16T23:50:04.003Z,67.73
2023-05-16T23:52:31.953Z,68.39
2023-05-16T23:54:59.954Z,67.74
2023-05-16T23:57:27.988Z,67.60
2023-05-16T23:59:55.977Z,67.53
